createdAt,value
2023-05-04T00:00:18.095Z,22.53
2023-05-04T00:01:18.109Z,22.55
2023-05-04T00:02:18.184Z,22.57
2023-05-04T00:03:18.259Z,22.58
2023-05-04T00:04:18.257Z,22.58
2023-05-04T00:05:18.263Z,22.59
2023-05-04T00:06:18.302Z,22.60
2023-05-04T00:07:18.345Z,22.60
2023-05-04T00:08:18.378Z,22.60
2023-05-04T00:09:18.420Z,22.60
2023-05-04T00:10:19.054Z,22.60
2023-05-04T00:11:18.518Z,22.60
2023-05-04T00:12:18.589Z,22.60
2023-05-04T00:13:18.691Z,22.59
2023-05-04T00:14:18.695Z,22.60
2023-05-04T00:15:18.750Z,22.60
2023-05-04T00:16:18.885Z,22.60
2023-05-04T00:17:18.884Z,22.59
2023-05-04T00:18:18.927Z,22.59
2023-05-04T00:19:18.982Z,22.59
2023-05-04T00:20:19.065Z,22.59
2023-05-04T00:21:19.124Z,22.59
2023-05-04T00:22:19.227Z,22.59
2023-05-04T00:23:19.235Z,22.58
2023-05-04T00:24:19.262Z,22.58
2023-05-04T00:25:19.387Z,22.58
2023-05-04T00:26:19.409Z,22.58
2023-05-04T00:27:19.496Z,22.57
2023-05-04T00:28:19.427Z,22.58
2023-05-04T00:29:19.482Z,22.57
2023-05-04T00:30:19.502Z,22.57
2023-05-04T00:31:19.628Z,22.57
2023-05-04T00:32:19.528Z,22.57
2023-05-04T00:33:19.540Z,22.56
2023-05-04T00:34:19.557Z,22.56
2023-05-04T00:35:19.597Z,22.56
2023-05-04T00:36:19.641Z,22.56
2023-05-04T00:37:19.650Z,22.55
2023-05-04T00:38:19.672Z,22.55
2023-05-04T00:39:19.685Z,22.56
2023-05-04T00:40:19.708Z,22.55
2023-05-04T00:41:19.746Z,22.56
2023-05-04T00:42:19.802Z,22.55
2023-05-04T00:43:19.845Z,22.55
2023-05-04T00:44:19.902Z,22.54
2023-05-04T00:45:19.961Z,22.55
2023-05-04T00:46:19.973Z,22.54
2023-05-04T00:47:20.132Z,22.54
2023-05-04T00:48:20.100Z,22.54
2023-05-04T00:49:20.139Z,22.54
2023-05-04T00:50:20.193Z,22.54
2023-05-04T00:51:20.242Z,22.53
2023-05-04T00:52:20.284Z,22.53
2023-05-04T00:53:20.299Z,22.53
2023-05-04T00:54:20.333Z,22.53
2023-05-04T00:55:20.373Z,22.52
2023-05-04T00:56:20.396Z,22.52
2023-05-04T00:57:20.439Z,22.53
2023-05-04T00:58:20.462Z,22.52
2023-05-04T00:59:20.492Z,22.52
2023-05-04T01:00:20.503Z,22.52
2023-05-04T01:01:20.614Z,22.52
2023-05-04T01:02:20.571Z,22.51
2023-05-04T01:03:20.668Z,22.51
2023-05-04T01:04:20.619Z,22.51
2023-05-04T01:05:20.634Z,22.51
2023-05-04T01:06:20.640Z,22.50
2023-05-04T01:07:20.658Z,22.51
2023-05-04T01:08:20.663Z,22.50
2023-05-04T01:09:20.665Z,22.50
2023-05-04T01:10:20.679Z,22.50
2023-05-04T01:11:20.726Z,22.50
2023-05-04T01:12:20.730Z,22.49
2023-05-04T01:13:20.740Z,22.49
2023-05-04T01:14:20.774Z,22.49
2023-05-04T01:15:20.788Z,22.49
2023-05-04T01:16:20.866Z,22.49
2023-05-04T01:17:20.935Z,22.49
2023-05-04T01:18:20.844Z,22.48
2023-05-04T01:19:20.878Z,22.48
2023-05-04T01:20:20.913Z,22.48
2023-05-04T01:21:20.947Z,22.48
2023-05-04T01:22:20.962Z,22.48
2023-05-04T01:23:20.982Z,22.47
2023-05-04T01:24:21.016Z,22.47
2023-05-04T01:25:21.054Z,22.47
2023-05-04T01:26:21.091Z,22.46
2023-05-04T01:27:21.108Z,22.47
2023-05-04T01:28:21.137Z,22.47
2023-05-04T01:29:21.158Z,22.46
2023-05-04T01:30:21.186Z,22.46
2023-05-04T01:31:21.237Z,22.46
2023-05-04T01:32:21.261Z,22.46
2023-05-04T01:33:21.296Z,22.46
2023-05-04T01:34:21.282Z,22.45
2023-05-04T01:35:21.299Z,22.46
2023-05-04T01:36:21.308Z,22.45
2023-05-04T01:37:21.324Z,22.45
2023-05-04T01:38:21.354Z,22.45
2023-05-04T01:39:21.372Z,22.45
2023-05-04T01:40:21.412Z,22.44
2023-05-04T01:41:21.408Z,22.44
2023-05-04T01:42:21.427Z,22.44
2023-05-04T01:43:21.414Z,22.43
2023-05-04T01:44:21.401Z,22.43
2023-05-04T01:45:21.412Z,22.43
2023-05-04T01:46:21.504Z,22.43
2023-05-04T01:47:21.438Z,22.43
2023-05-04T01:48:21.454Z,22.43
2023-05-04T01:49:21.491Z,22.43
2023-05-04T01:50:21.474Z,22.43
2023-05-04T01:51:21.488Z,22.42
2023-05-04T01:52:21.506Z,22.42
2023-05-04T01:53:21.507Z,22.42
2023-05-04T01:54:21.522Z,22.42
2023-05-04T01:55:21.555Z,22.42
2023-05-04T01:56:21.535Z,22.42
2023-05-04T01:57:21.550Z,22.41
2023-05-04T01:58:21.560Z,22.41
2023-05-04T01:59:21.554Z,22.41
2023-05-04T02:00:21.558Z,22.41
2023-05-04T02:01:21.596Z,22.41
2023-05-04T02:02:21.611Z,22.40
2023-05-04T02:03:21.684Z,22.40
2023-05-04T02:04:21.605Z,22.40
2023-05-04T02:05:21.634Z,22.40
2023-05-04T02:06:21.618Z,22.39
2023-05-04T02:07:21.604Z,22.39
2023-05-04T02:08:21.613Z,22.39
2023-05-04T02:09:21.622Z,22.39
2023-05-04T02:10:21.635Z,22.39
2023-05-04T02:11:21.630Z,22.39
2023-05-04T02:12:21.687Z,22.38
2023-05-04T02:13:21.642Z,22.38
2023-05-04T02:14:21.664Z,22.38
2023-05-04T02:15:21.687Z,22.38
2023-05-04T02:16:21.732Z,22.38
2023-05-04T02:17:21.722Z,22.38
2023-05-04T02:18:21.738Z,22.38
2023-05-04T02:19:21.773Z,22.38
2023-05-04T02:20:21.800Z,22.37
2023-05-04T02:21:21.841Z,22.37
2023-05-04T02:22:21.835Z,22.37
2023-05-04T02:23:21.871Z,22.37
2023-05-04T02:24:21.876Z,22.36
2023-05-04T02:25:21.887Z,22.37
2023-05-04T02:26:21.912Z,22.36
2023-05-04T02:27:21.938Z,22.36
2023-05-04T02:28:21.941Z,22.36
2023-05-04T02:29:21.960Z,22.36
2023-05-04T02:30:21.973Z,22.35
2023-05-04T02:31:22.047Z,22.36
2023-05-04T02:32:22.060Z,22.35
2023-05-04T02:33:22.040Z,22.35
2023-05-04T02:34:22.047Z,22.35
2023-05-04T02:35:22.056Z,22.35
2023-05-04T02:36:22.082Z,22.35
2023-05-04T02:37:22.124Z,22.34
2023-05-04T02:38:22.136Z,22.34
2023-05-04T02:39:22.133Z,22.34
2023-05-04T02:40:22.161Z,22.34
2023-05-04T02:41:22.166Z,22.33
2023-05-04T02:42:22.185Z,22.34
2023-05-04T02:43:22.194Z,22.33
2023-05-04T02:44:22.223Z,22.33
2023-05-04T02:45:22.252Z,22.33
2023-05-04T02:46:22.291Z,22.33
2023-05-04T02:47:22.302Z,22.33
2023-05-04T02:48:22.674Z,22.32
2023-05-04T02:49:22.685Z,22.33
2023-05-04T02:50:22.682Z,22.32
2023-05-04T02:51:22.679Z,22.32
2023-05-04T02:52:22.687Z,22.32
2023-05-04T02:53:22.711Z,22.31
2023-05-04T02:54:22.684Z,22.32
2023-05-04T02:55:22.679Z,22.31
2023-05-04T02:56:22.687Z,22.31
2023-05-04T02:57:22.692Z,22.31
2023-05-04T02:58:22.692Z,22.31
2023-05-04T02:59:22.686Z,22.30
2023-05-04T03:00:22.700Z,22.31
2023-05-04T03:01:22.775Z,22.31
2023-05-04T03:02:22.725Z,22.30
2023-05-04T03:03:22.691Z,22.31
2023-05-04T03:04:22.748Z,22.30
2023-05-04T03:05:22.696Z,22.29
2023-05-04T03:06:22.687Z,22.30
2023-05-04T03:07:22.697Z,22.29
2023-05-04T03:08:22.700Z,22.29
2023-05-04T03:09:22.725Z,22.30
2023-05-04T03:10:22.699Z,22.29
2023-05-04T03:11:22.698Z,22.29
2023-05-04T03:12:22.695Z,22.29
2023-05-04T03:13:22.705Z,22.28
2023-05-04T03:14:22.699Z,22.28
2023-05-04T03:15:22.695Z,22.27
2023-05-04T03:16:22.760Z,22.29
2023-05-04T03:17:22.731Z,22.27
2023-05-04T03:18:22.722Z,22.27
2023-05-04T03:19:22.720Z,22.27
2023-05-04T03:20:22.738Z,22.27
2023-05-04T03:21:22.732Z,22.27
2023-05-04T03:22:22.750Z,22.26
2023-05-04T03:23:22.745Z,22.27
2023-05-04T03:24:22.755Z,22.27
2023-05-04T03:25:22.780Z,22.26
2023-05-04T03:26:22.782Z,22.26
2023-05-04T03:27:22.766Z,22.26
2023-05-04T03:28:22.775Z,22.26
2023-05-04T03:29:22.770Z,22.26
2023-05-04T03:30:22.783Z,22.25
2023-05-04T03:31:22.798Z,22.25
2023-05-04T03:32:22.786Z,22.25
2023-05-04T03:33:22.798Z,22.25
2023-05-04T03:34:22.793Z,22.25
2023-05-04T03:35:24.941Z,22.25
2023-05-04T03:36:22.775Z,22.25
2023-05-04T03:37:22.769Z,22.24
2023-05-04T03:38:22.768Z,22.24
2023-05-04T03:39:22.765Z,22.24
2023-05-04T03:40:22.773Z,22.24
2023-05-04T03:41:22.780Z,22.24
2023-05-04T03:42:22.747Z,22.23
2023-05-04T03:43:22.739Z,22.23
2023-05-04T03:44:22.726Z,22.23
2023-05-04T03:45:22.728Z,22.23
2023-05-04T03:46:22.742Z,22.23
2023-05-04T03:47:22.719Z,22.23
2023-05-04T03:48:22.719Z,22.23
2023-05-04T03:49:22.713Z,22.23
2023-05-04T03:50:22.720Z,22.23
2023-05-04T03:51:22.731Z,22.23
2023-05-04T03:52:22.726Z,22.22
2023-05-04T03:53:22.726Z,22.22
2023-05-04T03:54:22.720Z,22.22
2023-05-04T03:55:22.729Z,22.22
2023-05-04T03:56:22.720Z,22.21
2023-05-04T03:57:22.781Z,22.22
2023-05-04T03:58:22.723Z,22.21
2023-05-04T03:59:22.756Z,22.22
2023-05-04T04:00:22.738Z,22.21
2023-05-04T04:01:22.741Z,22.22
2023-05-04T04:02:22.776Z,22.21
2023-05-04T04:03:22.952Z,22.21
2023-05-04T04:04:22.756Z,22.21
2023-05-04T04:05:22.727Z,22.21
2023-05-04T04:06:22.729Z,22.21
2023-05-04T04:07:22.735Z,22.21
2023-05-04T04:08:22.737Z,22.20
2023-05-04T04:09:22.735Z,22.20
2023-05-04T04:10:22.737Z,22.20
2023-05-04T04:11:22.731Z,22.20
2023-05-04T04:12:22.750Z,22.19
2023-05-04T04:13:22.812Z,22.20
2023-05-04T04:14:22.747Z,22.20
2023-05-04T04:15:22.744Z,22.19
2023-05-04T04:16:22.774Z,22.20
2023-05-04T04:17:22.776Z,22.20
2023-05-04T04:18:22.739Z,22.20
2023-05-04T04:19:22.757Z,22.19
2023-05-04T04:20:22.776Z,22.19
2023-05-04T04:21:22.737Z,22.20
2023-05-04T04:22:22.743Z,22.19
2023-05-04T04:23:22.738Z,22.19
2023-05-04T04:24:22.733Z,22.19
2023-05-04T04:25:22.740Z,22.19
2023-05-04T04:26:22.746Z,22.19
2023-05-04T04:27:22.737Z,22.19
2023-05-04T04:28:22.780Z,22.19
2023-05-04T04:29:22.776Z,22.19
2023-05-04T04:30:22.749Z,22.19
2023-05-04T04:31:22.827Z,22.18
2023-05-04T04:32:22.859Z,22.19
2023-05-04T04:33:23.602Z,22.19
2023-05-04T04:34:22.703Z,22.19
2023-05-04T04:35:22.701Z,22.19
2023-05-04T04:36:22.332Z,22.19
2023-05-04T04:37:22.321Z,22.19
2023-05-04T04:38:22.319Z,22.19
2023-05-04T04:39:22.330Z,22.19
2023-05-04T04:40:22.304Z,22.19
2023-05-04T04:41:22.293Z,22.19
2023-05-04T04:42:22.296Z,22.19
2023-05-04T04:43:22.272Z,22.19
2023-05-04T04:44:22.276Z,22.19
2023-05-04T04:45:22.384Z,22.19
2023-05-04T04:46:22.276Z,22.19
2023-05-04T04:47:22.250Z,22.19
2023-05-04T04:48:22.249Z,22.19
2023-05-04T04:49:22.248Z,22.19
2023-05-04T04:50:22.227Z,22.19
2023-05-04T04:51:22.224Z,22.19
2023-05-04T04:52:22.212Z,22.19
2023-05-04T04:53:22.207Z,22.19
2023-05-04T04:54:22.199Z,22.18
2023-05-04T04:55:22.215Z,22.20
2023-05-04T04:56:22.181Z,22.19
2023-05-04T04:57:22.182Z,22.20
2023-05-04T04:58:22.199Z,22.19
2023-05-04T04:59:22.164Z,22.20
2023-05-04T05:00:22.154Z,22.19
2023-05-04T05:01:22.256Z,22.19
2023-05-04T05:02:22.141Z,22.20
2023-05-04T05:03:22.132Z,22.20
2023-05-04T05:04:22.187Z,22.20
2023-05-04T05:05:22.114Z,22.19
2023-05-04T05:06:22.119Z,22.20
2023-05-04T05:07:22.116Z,22.19
2023-05-04T05:08:22.096Z,22.20
2023-05-04T05:09:22.090Z,22.19
2023-05-04T05:10:22.083Z,22.20
2023-05-04T05:11:22.074Z,22.19
2023-05-04T05:12:22.083Z,22.20
2023-05-04T05:13:22.070Z,22.19
2023-05-04T05:14:22.068Z,22.19
2023-05-04T05:15:22.061Z,22.20
2023-05-04T05:16:22.099Z,22.19
2023-05-04T05:17:22.250Z,22.20
2023-05-04T05:18:22.126Z,22.20
2023-05-04T05:19:22.112Z,22.20
2023-05-04T05:20:22.061Z,22.19
2023-05-04T05:21:22.140Z,22.20
2023-05-04T05:22:22.198Z,22.20
2023-05-04T05:23:22.085Z,22.21
2023-05-04T05:24:22.039Z,22.23
2023-05-04T05:25:22.166Z,22.24
2023-05-04T05:26:22.163Z,22.24
2023-05-04T05:27:22.140Z,22.26
2023-05-04T05:28:22.238Z,22.27
2023-05-04T05:29:22.075Z,22.28
2023-05-04T05:30:22.092Z,22.27
2023-05-04T05:31:22.267Z,22.28
2023-05-04T05:32:22.182Z,22.29
2023-05-04T05:33:22.390Z,22.31
2023-05-04T05:34:22.290Z,22.33
2023-05-04T05:35:22.225Z,22.34
2023-05-04T05:36:22.196Z,22.35
2023-05-04T05:37:22.304Z,22.36
2023-05-04T05:38:22.333Z,22.38
2023-05-04T05:39:22.225Z,22.40
2023-05-04T05:40:22.264Z,22.41
2023-05-04T05:41:22.218Z,22.43
2023-05-04T05:42:22.330Z,22.45
2023-05-04T05:43:22.821Z,22.45
2023-05-04T05:44:23.305Z,22.46
2023-05-04T05:45:22.458Z,22.48
2023-05-04T05:46:21.879Z,22.50
2023-05-04T05:47:22.838Z,22.50
2023-05-04T05:48:23.236Z,22.51
2023-05-04T05:49:23.878Z,22.52
2023-05-04T05:50:22.897Z,22.53
2023-05-04T05:51:22.751Z,22.53
2023-05-04T05:52:26.437Z,22.55
2023-05-04T05:53:23.472Z,22.55
2023-05-04T05:54:55.604Z,22.57
2023-05-04T05:55:23.024Z,22.58
2023-05-04T05:56:30.611Z,22.60
2023-05-04T05:57:22.798Z,22.61
2023-05-04T05:58:30.196Z,22.64
2023-05-04T05:59:30.152Z,22.66
2023-05-04T06:00:25.975Z,22.69
2023-05-04T06:02:22.850Z,22.73
2023-05-04T06:04:38.432Z,22.79
2023-05-04T06:05:25.892Z,22.83
2023-05-04T06:06:22.696Z,22.86
2023-05-04T06:08:22.671Z,22.90
2023-05-04T06:09:22.681Z,22.94
2023-05-04T06:10:22.682Z,22.97
2023-05-04T06:11:22.653Z,23.01
2023-05-04T06:12:22.739Z,23.02
2023-05-04T06:13:22.970Z,23.05
2023-05-04T06:14:23.012Z,23.08
2023-05-04T06:15:22.643Z,23.13
2023-05-04T06:16:23.587Z,23.15
2023-05-04T06:17:23.636Z,23.18
2023-05-04T06:18:22.762Z,23.19
2023-05-04T06:19:22.596Z,23.20
2023-05-04T06:20:23.622Z,23.22
2023-05-04T06:21:22.622Z,23.24
2023-05-04T06:22:22.586Z,23.26
2023-05-04T06:23:22.602Z,23.28
2023-05-04T06:24:25.779Z,23.31
2023-05-04T06:25:22.559Z,23.33
2023-05-04T06:26:22.637Z,23.35
2023-05-04T06:27:24.244Z,23.36
2023-05-04T06:28:22.555Z,23.39
2023-05-04T06:29:22.677Z,23.40
2023-05-04T06:30:22.529Z,23.42
2023-05-04T06:31:22.572Z,23.43
2023-05-04T06:32:22.840Z,23.46
2023-05-04T06:33:22.514Z,23.47
2023-05-04T06:34:22.494Z,23.48
2023-05-04T06:35:22.509Z,23.50
2023-05-04T06:36:22.548Z,23.51
2023-05-04T06:37:22.735Z,23.53
2023-05-04T06:38:22.846Z,23.55
2023-05-04T06:39:22.466Z,23.57
2023-05-04T06:40:22.471Z,23.58
2023-05-04T06:41:22.785Z,23.58
2023-05-04T06:42:22.530Z,23.60
2023-05-04T06:43:22.558Z,23.61
2023-05-04T06:44:22.600Z,23.63
2023-05-04T06:45:23.655Z,23.64
2023-05-04T06:46:22.875Z,23.67
2023-05-04T06:47:22.856Z,23.68
2023-05-04T06:48:22.806Z,23.68
2023-05-04T06:49:22.824Z,23.63
2023-05-04T06:50:22.944Z,23.55
2023-05-04T06:51:23.268Z,23.50
2023-05-04T06:52:30.430Z,23.45
2023-05-04T06:53:23.012Z,23.41
2023-05-04T06:54:23.136Z,23.38
2023-05-04T06:55:22.949Z,23.36
2023-05-04T06:56:23.181Z,23.34
2023-05-04T06:57:23.250Z,23.32
2023-05-04T06:58:23.935Z,23.31
2023-05-04T06:59:22.959Z,23.30
2023-05-04T07:00:22.913Z,23.30
2023-05-04T07:01:23.670Z,23.29
2023-05-04T07:02:23.440Z,23.29
2023-05-04T07:03:23.045Z,23.28
2023-05-04T07:04:30.297Z,23.26
2023-05-04T07:05:26.130Z,23.25
2023-05-04T07:06:23.239Z,23.24
2023-05-04T07:07:22.942Z,23.24
2023-05-04T07:08:23.040Z,23.24
2023-05-04T07:09:22.867Z,23.25
2023-05-04T07:10:22.844Z,23.24
2023-05-04T07:11:22.839Z,23.22
2023-05-04T07:12:22.825Z,23.21
2023-05-04T07:13:23.242Z,23.20
2023-05-04T07:14:22.844Z,23.19
2023-05-04T07:15:22.816Z,23.18
2023-05-04T07:16:23.313Z,23.18
2023-05-04T07:17:22.874Z,23.17
2023-05-04T07:18:22.785Z,23.17
2023-05-04T07:19:22.775Z,23.16
2023-05-04T07:20:25.681Z,23.16
2023-05-04T07:21:28.440Z,23.14
2023-05-04T07:22:22.765Z,23.13
2023-05-04T07:23:23.256Z,23.14
2023-05-04T07:24:22.853Z,23.13
2023-05-04T07:25:22.741Z,23.13
2023-05-04T07:26:22.851Z,23.14
2023-05-04T07:27:22.773Z,23.15
2023-05-04T07:28:22.727Z,23.16
2023-05-04T07:29:22.764Z,23.17
2023-05-04T07:30:22.816Z,23.17
2023-05-04T07:31:22.739Z,23.17
2023-05-04T07:32:22.765Z,23.18
2023-05-04T07:33:22.726Z,23.17
2023-05-04T07:34:30.223Z,23.16
2023-05-04T07:35:22.844Z,23.14
2023-05-04T07:36:25.881Z,23.11
2023-05-04T07:37:22.824Z,23.13
2023-05-04T07:38:23.832Z,23.11
2023-05-04T07:39:22.660Z,23.14
2023-05-04T07:40:22.690Z,23.16
2023-05-04T07:41:23.640Z,23.17
2023-05-04T07:42:23.785Z,23.16
2023-05-04T07:43:22.793Z,23.16
2023-05-04T07:44:22.753Z,23.15
2023-05-04T07:45:22.625Z,23.14
2023-05-04T07:46:22.748Z,23.14
2023-05-04T07:47:24.632Z,23.14
2023-05-04T07:48:24.632Z,23.14
2023-05-04T07:49:54.654Z,23.14
2023-05-04T07:50:23.562Z,23.14
2023-05-04T07:51:22.548Z,23.15
2023-05-04T07:52:22.562Z,23.17
2023-05-04T07:53:22.785Z,23.19
2023-05-04T07:54:23.536Z,23.21
2023-05-04T07:55:22.524Z,23.23
2023-05-04T07:56:22.563Z,23.27
2023-05-04T07:57:22.546Z,23.30
2023-05-04T07:58:22.791Z,23.32
2023-05-04T07:59:22.547Z,23.33
2023-05-04T08:00:22.529Z,23.35
2023-05-04T08:01:23.527Z,23.36
2023-05-04T08:02:22.973Z,23.37
2023-05-04T08:03:23.859Z,23.39
2023-05-04T08:04:22.497Z,23.41
2023-05-04T08:05:22.541Z,23.41
2023-05-04T08:06:22.646Z,23.42
2023-05-04T08:07:22.776Z,23.43
2023-05-04T08:08:22.738Z,23.43
2023-05-04T08:09:23.765Z,23.42
2023-05-04T08:10:23.890Z,23.40
2023-05-04T08:11:22.953Z,23.40
2023-05-04T08:12:22.954Z,23.40
2023-05-04T08:13:22.927Z,23.40
2023-05-04T08:14:22.936Z,23.40
2023-05-04T08:15:22.978Z,23.42
2023-05-04T08:16:23.005Z,23.44
2023-05-04T08:17:24.324Z,23.46
2023-05-04T08:18:23.278Z,23.46
2023-05-04T08:19:23.123Z,23.48
2023-05-04T08:20:23.943Z,23.48
2023-05-04T08:21:23.293Z,23.50
2023-05-04T08:22:24.758Z,23.51
2023-05-04T08:23:23.594Z,23.53
2023-05-04T08:24:23.543Z,23.53
2023-05-04T08:25:23.578Z,23.55
2023-05-04T08:26:23.637Z,23.56
2023-05-04T08:27:23.804Z,23.58
2023-05-04T08:28:23.839Z,23.60
2023-05-04T08:29:23.808Z,23.62
2023-05-04T08:30:23.915Z,23.62
2023-05-04T08:31:23.881Z,23.64
2023-05-04T08:32:33.287Z,23.66
2023-05-04T08:33:25.465Z,23.67
2023-05-04T08:34:27.414Z,23.69
2023-05-04T08:35:25.064Z,23.70
2023-05-04T08:36:24.068Z,23.71
2023-05-04T08:37:27.384Z,23.72
2023-05-04T08:38:25.331Z,23.72
2023-05-04T08:39:24.338Z,23.73
2023-05-04T08:40:31.471Z,23.74
2023-05-04T08:41:24.026Z,23.74
2023-05-04T08:42:24.004Z,23.76
2023-05-04T08:43:24.013Z,23.77
2023-05-04T08:44:24.319Z,23.71
2023-05-04T08:45:25.202Z,23.64
2023-05-04T08:46:24.137Z,23.57
2023-05-04T08:47:24.028Z,23.53
2023-05-04T08:48:23.984Z,23.50
2023-05-04T08:49:24.315Z,23.46
2023-05-04T08:50:24.101Z,23.42
2023-05-04T08:51:24.095Z,23.38
2023-05-04T08:52:24.123Z,23.36
2023-05-04T08:53:24.864Z,23.33
2023-05-04T08:54:24.099Z,23.32
2023-05-04T08:55:24.061Z,23.29
2023-05-04T08:56:24.058Z,23.26
2023-05-04T08:57:24.080Z,23.23
2023-05-04T08:58:24.314Z,23.21
2023-05-04T08:59:24.093Z,23.19
2023-05-04T09:00:24.298Z,23.17
2023-05-04T09:01:24.203Z,23.18
2023-05-04T09:02:24.210Z,23.17
2023-05-04T09:03:24.229Z,23.17
2023-05-04T09:04:24.162Z,23.16
2023-05-04T09:05:24.304Z,23.14
2023-05-04T09:06:24.187Z,23.13
2023-05-04T09:07:24.218Z,23.11
2023-05-04T09:08:24.222Z,23.10
2023-05-04T09:09:24.251Z,23.09
2023-05-04T09:10:24.301Z,23.07
2023-05-04T09:11:24.298Z,23.06
2023-05-04T09:12:24.812Z,23.04
2023-05-04T09:13:24.334Z,23.03
2023-05-04T09:14:24.356Z,23.00
2023-05-04T09:15:24.391Z,22.98
2023-05-04T09:16:24.504Z,22.97
2023-05-04T09:17:24.497Z,22.96
2023-05-04T09:18:24.869Z,22.96
2023-05-04T09:19:24.544Z,22.96
2023-05-04T09:20:24.791Z,22.94
2023-05-04T09:21:24.604Z,22.93
2023-05-04T09:22:25.139Z,22.92
2023-05-04T09:23:24.840Z,22.91
2023-05-04T09:24:24.751Z,22.91
2023-05-04T09:25:24.854Z,22.89
2023-05-04T09:26:24.828Z,22.89
2023-05-04T09:27:24.838Z,22.88
2023-05-04T09:28:27.145Z,22.87
2023-05-04T09:29:24.908Z,22.84
2023-05-04T09:30:24.876Z,22.82
2023-05-04T09:31:24.904Z,22.78
2023-05-04T09:32:25.933Z,22.73
2023-05-04T09:33:25.355Z,22.65
2023-05-04T09:34:24.866Z,22.57
2023-05-04T09:35:33.306Z,22.52
2023-05-04T09:37:25.897Z,22.48
2023-05-04T09:38:26.343Z,22.48
2023-05-04T09:39:25.348Z,22.43
2023-05-04T09:40:25.015Z,22.37
2023-05-04T09:41:25.048Z,22.33
2023-05-04T09:42:25.144Z,22.26
2023-05-04T09:43:25.155Z,22.23
2023-05-04T09:44:28.882Z,22.26
2023-05-04T09:45:25.194Z,22.24
2023-05-04T09:46:25.226Z,22.25
2023-05-04T09:47:26.302Z,22.26
2023-05-04T09:48:25.497Z,22.27
2023-05-04T09:49:25.291Z,22.29
2023-05-04T09:50:25.352Z,22.32
2023-05-04T09:51:25.382Z,22.35
2023-05-04T09:52:25.497Z,22.35
2023-05-04T09:53:25.941Z,22.38
2023-05-04T09:54:25.487Z,22.38
2023-05-04T09:55:25.879Z,22.38
2023-05-04T09:56:28.870Z,22.40
2023-05-04T09:57:25.555Z,22.40
2023-05-04T09:58:25.830Z,22.41
2023-05-04T09:59:25.531Z,22.42
2023-05-04T10:00:26.343Z,22.43
2023-05-04T10:01:25.520Z,22.44
2023-05-04T10:02:25.580Z,22.46
2023-05-04T10:03:25.850Z,22.45
2023-05-04T10:04:25.843Z,22.38
2023-05-04T10:05:25.534Z,22.34
2023-05-04T10:06:25.464Z,22.30
2023-05-04T10:07:25.455Z,22.29
2023-05-04T10:08:25.628Z,22.29
2023-05-04T10:09:26.318Z,22.30
2023-05-04T10:10:25.447Z,22.32
2023-05-04T10:11:25.444Z,22.32
2023-05-04T10:12:25.433Z,22.34
2023-05-04T10:13:25.437Z,22.33
2023-05-04T10:14:25.824Z,22.34
2023-05-04T10:15:25.525Z,22.34
2023-05-04T10:16:25.618Z,22.34
2023-05-04T10:17:26.672Z,22.34
2023-05-04T10:18:25.746Z,22.37
2023-05-04T10:19:25.834Z,22.38
2023-05-04T10:20:25.814Z,22.39
2023-05-04T10:21:25.789Z,22.37
2023-05-04T10:22:25.888Z,22.33
2023-05-04T10:23:25.806Z,22.31
2023-05-04T10:24:26.326Z,22.32
2023-05-04T10:25:25.933Z,22.34
2023-05-04T10:26:25.981Z,22.40
2023-05-04T10:27:26.002Z,22.46
2023-05-04T10:28:26.348Z,22.51
2023-05-04T10:29:26.351Z,22.54
2023-05-04T10:30:27.330Z,22.56
2023-05-04T10:31:26.109Z,22.60
2023-05-04T10:32:26.152Z,22.65
2023-05-04T10:33:26.089Z,22.70
2023-05-04T10:34:26.137Z,22.75
2023-05-04T10:35:26.232Z,22.80
2023-05-04T10:36:26.421Z,22.85
2023-05-04T10:37:26.329Z,22.90
2023-05-04T10:38:27.801Z,22.93
2023-05-04T10:39:27.200Z,22.98
2023-05-04T10:40:26.426Z,23.02
2023-05-04T10:41:26.453Z,23.06
2023-05-04T10:42:27.223Z,23.08
2023-05-04T10:43:26.530Z,23.11
2023-05-04T10:44:27.143Z,23.15
2023-05-04T10:45:26.485Z,23.19
2023-05-04T10:46:26.475Z,23.22
2023-05-04T10:47:26.534Z,23.25
2023-05-04T10:48:26.468Z,23.28
2023-05-04T10:49:26.862Z,23.30
2023-05-04T10:50:26.476Z,23.33
2023-05-04T10:51:35.606Z,23.35
2023-05-04T10:52:26.539Z,23.36
2023-05-04T10:53:26.491Z,23.39
2023-05-04T10:54:27.198Z,23.41
2023-05-04T10:55:26.485Z,23.42
2023-05-04T10:56:26.553Z,23.44
2023-05-04T10:57:26.481Z,23.45
2023-05-04T10:58:26.456Z,23.47
2023-05-04T10:59:27.195Z,23.49
2023-05-04T11:00:26.446Z,23.50
2023-05-04T11:01:27.292Z,23.52
2023-05-04T11:02:27.285Z,23.53
2023-05-04T11:03:26.506Z,23.54
2023-05-04T11:04:26.429Z,23.56
2023-05-04T11:05:26.469Z,23.57
2023-05-04T11:06:26.417Z,23.59
2023-05-04T11:07:27.194Z,23.61
2023-05-04T11:08:27.448Z,23.60
2023-05-04T11:09:27.209Z,23.59
2023-05-04T11:10:26.607Z,23.54
2023-05-04T11:11:26.660Z,23.52
2023-05-04T11:12:27.131Z,23.51
2023-05-04T11:13:26.655Z,23.50
2023-05-04T11:14:27.170Z,23.49
2023-05-04T11:15:27.145Z,23.48
2023-05-04T11:16:27.206Z,23.48
2023-05-04T11:17:28.640Z,23.48
2023-05-04T11:18:27.198Z,23.48
2023-05-04T11:19:27.351Z,23.49
2023-05-04T11:20:27.207Z,23.50
2023-05-04T11:21:27.215Z,23.52
2023-05-04T11:22:27.213Z,23.54
2023-05-04T11:23:27.224Z,23.56
2023-05-04T11:24:27.262Z,23.57
2023-05-04T11:25:26.827Z,23.59
2023-05-04T11:26:26.822Z,23.60
2023-05-04T11:27:26.830Z,23.63
2023-05-04T11:28:26.797Z,23.63
2023-05-04T11:29:26.788Z,23.63
2023-05-04T11:30:26.810Z,23.60
2023-05-04T11:31:26.813Z,23.58
2023-05-04T11:32:26.801Z,23.57
2023-05-04T11:33:26.768Z,23.56
2023-05-04T11:34:26.770Z,23.56
2023-05-04T11:35:26.752Z,23.56
2023-05-04T11:36:26.754Z,23.56
2023-05-04T11:37:26.793Z,23.55
2023-05-04T11:38:26.866Z,23.56
2023-05-04T11:39:27.393Z,23.58
2023-05-04T11:40:27.348Z,23.60
2023-05-04T11:41:27.325Z,23.62
2023-05-04T11:42:27.324Z,23.65
2023-05-04T11:43:27.354Z,23.67
2023-05-04T11:44:27.335Z,23.67
2023-05-04T11:45:27.341Z,23.69
2023-05-04T11:46:27.353Z,23.70
2023-05-04T11:47:27.370Z,23.72
2023-05-04T11:48:27.372Z,23.73
2023-05-04T11:49:27.408Z,23.72
2023-05-04T11:50:27.460Z,23.73
2023-05-04T11:51:27.500Z,23.73
2023-05-04T11:52:27.544Z,23.76
2023-05-04T11:53:27.597Z,23.79
2023-05-04T11:54:27.897Z,23.81
2023-05-04T11:55:27.676Z,23.81
2023-05-04T11:56:27.759Z,23.80
2023-05-04T11:57:27.750Z,23.78
2023-05-04T11:58:27.776Z,23.75
2023-05-04T11:59:27.841Z,23.73
2023-05-04T12:00:27.895Z,23.73
2023-05-04T12:01:27.941Z,23.73
2023-05-04T12:02:28.012Z,23.76
2023-05-04T12:03:35.940Z,23.77
2023-05-04T12:04:28.070Z,23.78
2023-05-04T12:05:28.079Z,23.79
2023-05-04T12:06:28.042Z,23.81
2023-05-04T12:07:28.014Z,23.84
2023-05-04T12:08:27.998Z,23.86
2023-05-04T12:09:28.007Z,23.89
2023-05-04T12:10:28.388Z,23.92
2023-05-04T12:11:28.379Z,23.94
2023-05-04T12:12:28.094Z,23.97
2023-05-04T12:13:28.005Z,24.01
2023-05-04T12:14:28.388Z,24.04
2023-05-04T12:15:28.381Z,24.04
2023-05-04T12:16:28.016Z,24.03
2023-05-04T12:17:27.963Z,24.03
2023-05-04T12:18:28.006Z,24.03
2023-05-04T12:19:27.953Z,24.04
2023-05-04T12:20:27.922Z,24.06
2023-05-04T12:21:28.015Z,24.08
2023-05-04T12:22:27.949Z,24.11
2023-05-04T12:23:27.908Z,24.14
2023-05-04T12:24:27.936Z,24.16
2023-05-04T12:25:27.951Z,24.17
2023-05-04T12:26:27.918Z,24.20
2023-05-04T12:27:28.031Z,24.23
2023-05-04T12:28:28.038Z,24.25
2023-05-04T12:29:28.388Z,24.28
2023-05-04T12:30:27.963Z,24.29
2023-05-04T12:31:27.984Z,24.32
2023-05-04T12:32:27.906Z,24.34
2023-05-04T12:33:27.849Z,24.37
2023-05-04T12:34:27.834Z,24.38
2023-05-04T12:35:27.834Z,24.38
2023-05-04T12:36:27.813Z,24.41
2023-05-04T12:37:27.809Z,24.43
2023-05-04T12:38:27.801Z,24.44
2023-05-04T12:39:27.790Z,24.46
2023-05-04T12:40:28.941Z,24.49
2023-05-04T12:41:27.966Z,24.49
2023-05-04T12:42:27.963Z,24.50
2023-05-04T12:43:27.980Z,24.52
2023-05-04T12:44:28.001Z,24.52
2023-05-04T12:45:27.934Z,24.54
2023-05-04T12:46:28.027Z,24.56
2023-05-04T12:47:28.085Z,24.57
2023-05-04T12:48:28.117Z,24.58
2023-05-04T12:49:28.141Z,24.58
2023-05-04T12:50:28.194Z,24.58
2023-05-04T12:51:28.234Z,24.58
2023-05-04T12:52:28.296Z,24.58
2023-05-04T12:53:28.404Z,24.60
2023-05-04T12:54:28.418Z,24.61
2023-05-04T12:55:28.456Z,24.62
2023-05-04T12:56:28.919Z,24.64